sensor_id;sensor_type;location;lat;lon;timestamp;pressure;altitude;pressure_sealevel;temperature;humidity
76864;BME280;65834;52.364;9.754;2024-01-30T00:02:26;102177.38;;;7.76;69.86
76864;BME280;65834;52.364;9.754;2024-01-30T00:04:56;102176.66;;;7.74;70.06
76864;BME280;65834;52.364;9.754;2024-01-30T00:07:26;102169.72;;;7.72;70.19
76864;BME280;65834;52.364;9.754;2024-01-30T00:09:55;102174.09;;;7.73;70.10
76864;BME280;65834;52.364;9.754;2024-01-30T00:12:25;102173.63;;;7.68;70.36
76864;BME280;65834;52.364;9.754;2024-01-30T00:14:54;102165.94;;;7.63;70.49
76864;BME280;65834;52.364;9.754;2024-01-30T00:17:27;102174.63;;;7.67;70.80
76864;BME280;65834;52.364;9.754;2024-01-30T00:19:57;102167.00;;;7.72;70.63
76864;BME280;65834;52.364;9.754;2024-01-30T00:22:27;102171.13;;;7.76;70.75
76864;BME280;65834;52.364;9.754;2024-01-30T00:24:57;102159.19;;;7.69;70.63
76864;BME280;65834;52.364;9.754;2024-01-30T00:27:29;102164.84;;;7.66;71.25
76864;BME280;65834;52.364;9.754;2024-01-30T00:29:58;102157.75;;;7.64;70.92
76864;BME280;65834;52.364;9.754;2024-01-30T00:32:30;102156.88;;;7.64;70.96
76864;BME280;65834;52.364;9.754;2024-01-30T00:35:00;102162.16;;;7.66;70.77
76864;BME280;65834;52.364;9.754;2024-01-30T00:37:30;102153.75;;;7.59;71.12
76864;BME280;65834;52.364;9.754;2024-01-30T00:40:00;102149.06;;;7.61;71.33
76864;BME280;65834;52.364;9.754;2024-01-30T00:42:30;102150.53;;;7.65;71.07
76864;BME280;65834;52.364;9.754;2024-01-30T00:44:59;102152.47;;;7.63;70.89
76864;BME280;65834;52.364;9.754;2024-01-30T00:47:32;102159.84;;;7.61;71.18
76864;BME280;65834;52.364;9.754;2024-01-30T00:50:01;102158.34;;;7.68;70.93
76864;BME280;65834;52.364;9.754;2024-01-30T00:52:32;102153.06;;;7.67;71.01
76864;BME280;65834;52.364;9.754;2024-01-30T00:55:01;102154.53;;;7.71;70.92
76864;BME280;65834;52.364;9.754;2024-01-30T00:57:31;102157.59;;;7.66;70.92
76864;BME280;65834;52.364;9.754;2024-01-30T01:00:00;102138.56;;;7.58;70.88
76864;BME280;65834;52.364;9.754;2024-01-30T01:02:32;102157.41;;;7.58;71.17
76864;BME280;65834;52.364;9.754;2024-01-30T01:05:02;102154.88;;;7.56;71.23
76864;BME280;65834;52.364;9.754;2024-01-30T01:07:32;102160.50;;;7.53;71.10
76864;BME280;65834;52.364;9.754;2024-01-30T01:10:02;102165.03;;;7.53;71.39
76864;BME280;65834;52.364;9.754;2024-01-30T01:12:32;102167.31;;;7.57;71.27
76864;BME280;65834;52.364;9.754;2024-01-30T01:15:01;102166.47;;;7.57;71.36
76864;BME280;65834;52.364;9.754;2024-01-30T01:17:34;102167.06;;;7.60;71.54
76864;BME280;65834;52.364;9.754;2024-01-30T01:20:05;102171.00;;;7.56;71.36
76864;BME280;65834;52.364;9.754;2024-01-30T01:22:35;102174.94;;;7.52;71.62
76864;BME280;65834;52.364;9.754;2024-01-30T01:25:06;102176.66;;;7.53;71.57
76864;BME280;65834;52.364;9.754;2024-01-30T01:27:37;102174.09;;;7.52;71.78
76864;BME280;65834;52.364;9.754;2024-01-30T01:30:10;102173.22;;;7.51;71.99
76864;BME280;65834;52.364;9.754;2024-01-30T01:32:48;102171.53;;;7.50;71.95
76864;BME280;65834;52.364;9.754;2024-01-30T01:35:22;102156.09;;;7.52;71.97
76864;BME280;65834;52.364;9.754;2024-01-30T01:37:52;102158.97;;;7.60;71.78
76864;BME280;65834;52.364;9.754;2024-01-30T01:40:23;102165.56;;;7.68;71.56
76864;BME280;65834;52.364;9.754;2024-01-30T01:42:53;102155.75;;;7.67;71.56
76864;BME280;65834;52.364;9.754;2024-01-30T01:45:23;102153.94;;;7.67;71.66
76864;BME280;65834;52.364;9.754;2024-01-30T01:47:56;102150.63;;;7.63;71.62
76864;BME280;65834;52.364;9.754;2024-01-30T01:50:25;102145.50;;;7.60;71.67
76864;BME280;65834;52.364;9.754;2024-01-30T01:52:55;102143.69;;;7.61;71.84
76864;BME280;65834;52.364;9.754;2024-01-30T01:55:25;102148.44;;;7.69;71.65
76864;BME280;65834;52.364;9.754;2024-01-30T01:57:55;102156.25;;;7.72;71.37
76864;BME280;65834;52.364;9.754;2024-01-30T02:00:25;102134.22;;;7.67;71.38
76864;BME280;65834;52.364;9.754;2024-01-30T02:02:58;102142.03;;;7.70;71.47
76864;BME280;65834;52.364;9.754;2024-01-30T02:05:28;102139.34;;;7.70;71.41
76864;BME280;65834;52.364;9.754;2024-01-30T02:07:59;102137.91;;;7.66;71.76
76864;BME280;65834;52.364;9.754;2024-01-30T02:10:31;102139.00;;;7.63;71.82
76864;BME280;65834;52.364;9.754;2024-01-30T02:13:01;102130.66;;;7.66;71.68
76864;BME280;65834;52.364;9.754;2024-01-30T02:15:31;102131.94;;;7.62;71.80
76864;BME280;65834;52.364;9.754;2024-01-30T02:18:03;102125.16;;;7.68;72.17
76864;BME280;65834;52.364;9.754;2024-01-30T02:20:34;102121.03;;;7.63;72.25
76864;BME280;65834;52.364;9.754;2024-01-30T02:23:09;102114.50;;;7.66;72.31
76864;BME280;65834;52.364;9.754;2024-01-30T02:25:40;102121.94;;;7.74;72.25
76864;BME280;65834;52.364;9.754;2024-01-30T02:28:11;102125.16;;;7.68;72.07
76864;BME280;65834;52.364;9.754;2024-01-30T02:30:42;102121.22;;;7.72;72.25
76864;BME280;65834;52.364;9.754;2024-01-30T02:33:12;102108.75;;;7.71;72.03
76864;BME280;65834;52.364;9.754;2024-01-30T02:35:42;102113.97;;;7.72;72.11
76864;BME280;65834;52.364;9.754;2024-01-30T02:38:15;102105.06;;;7.72;72.20
76864;BME280;65834;52.364;9.754;2024-01-30T02:40:44;102105.84;;;7.83;72.21
76864;BME280;65834;52.364;9.754;2024-01-30T02:43:15;102100.91;;;7.88;72.18
76864;BME280;65834;52.364;9.754;2024-01-30T02:45:45;102098.69;;;7.93;71.87
76864;BME280;65834;52.364;9.754;2024-01-30T02:48:15;102097.94;;;7.91;71.88
76864;BME280;65834;52.364;9.754;2024-01-30T02:50:44;102088.72;;;7.94;71.85
76864;BME280;65834;52.364;9.754;2024-01-30T02:53:16;102082.09;;;7.98;71.73
76864;BME280;65834;52.364;9.754;2024-01-30T02:55:46;102085.75;;;7.97;71.56
76864;BME280;65834;52.364;9.754;2024-01-30T02:58:15;102091.41;;;7.94;71.68
76864;BME280;65834;52.364;9.754;2024-01-30T03:00:45;102078.09;;;7.92;71.69
76864;BME280;65834;52.364;9.754;2024-01-30T03:03:14;102077.25;;;7.92;71.68
76864;BME280;65834;52.364;9.754;2024-01-30T03:05:44;102084.34;;;7.93;71.85
76864;BME280;65834;52.364;9.754;2024-01-30T03:08:16;102077.25;;;7.92;71.60
76864;BME280;65834;52.364;9.754;2024-01-30T03:10:43;102075.53;;;7.91;71.68
76864;BME280;65834;52.364;9.754;2024-01-30T03:13:13;102073.53;;;7.83;71.93
76864;BME280;65834;52.364;9.754;2024-01-30T03:15:57;102068.72;;;7.87;71.89
76864;BME280;65834;52.364;9.754;2024-01-30T03:18:32;102066.16;;;7.85;72.00
76864;BME280;65834;52.364;9.754;2024-01-30T03:21:02;102064.75;;;7.91;71.63
76864;BME280;65834;52.364;9.754;2024-01-30T03:23:34;102062.53;;;7.96;71.73
76864;BME280;65834;52.364;9.754;2024-01-30T03:26:04;102066.47;;;7.92;72.05
76864;BME280;65834;52.364;9.754;2024-01-30T03:28:33;102062.78;;;7.93;71.89
76864;BME280;65834;52.364;9.754;2024-01-30T03:31:03;102065.06;;;7.97;71.74
76864;BME280;65834;52.364;9.754;2024-01-30T03:33:33;102062.25;;;7.99;71.74
76864;BME280;65834;52.364;9.754;2024-01-30T03:36:04;102062.09;;;8.00;71.67
76864;BME280;65834;52.364;9.754;2024-01-30T03:38:36;102063.56;;;8.04;71.44
76864;BME280;65834;52.364;9.754;2024-01-30T03:41:07;102055.84;;;8.00;71.33
76864;BME280;65834;52.364;9.754;2024-01-30T03:43:37;102063.22;;;7.98;71.48
76864;BME280;65834;52.364;9.754;2024-01-30T03:46:06;102060.41;;;7.99;71.54
76864;BME280;65834;52.364;9.754;2024-01-30T03:48:36;102061.13;;;8.01;71.59
76864;BME280;65834;52.364;9.754;2024-01-30T03:51:06;102060.53;;;7.98;71.56
76864;BME280;65834;52.364;9.754;2024-01-30T03:53:38;102056.13;;;7.97;71.53
76864;BME280;65834;52.364;9.754;2024-01-30T03:56:08;102065.34;;;7.94;71.45
76864;BME280;65834;52.364;9.754;2024-01-30T03:58:37;102029.84;;;7.80;71.67
76864;BME280;65834;52.364;9.754;2024-01-30T04:01:07;102055.84;;;7.90;71.54
76864;BME280;65834;52.364;9.754;2024-01-30T04:03:40;102051.28;;;7.91;71.51
76864;BME280;65834;52.364;9.754;2024-01-30T04:06:12;102048.19;;;7.95;71.32
76864;BME280;65834;52.364;9.754;2024-01-30T04:08:44;102047.50;;;7.93;71.45
76864;BME280;65834;52.364;9.754;2024-01-30T04:11:14;102042.50;;;7.89;71.42
76864;BME280;65834;52.364;9.754;2024-01-30T04:13:43;102044.91;;;7.92;71.48
76864;BME280;65834;52.364;9.754;2024-01-30T04:16:19;102040.50;;;7.91;71.32
76864;BME280;65834;52.364;9.754;2024-01-30T04:18:51;102039.69;;;7.90;71.31
76864;BME280;65834;52.364;9.754;2024-01-30T04:21:21;102040.38;;;7.92;71.31
76864;BME280;65834;52.364;9.754;2024-01-30T04:23:53;102050.88;;;7.95;71.45
76864;BME280;65834;52.364;9.754;2024-01-30T04:26:24;102040.22;;;7.94;71.21
76864;BME280;65834;52.364;9.754;2024-01-30T04:28:54;102043.66;;;7.96;71.22
76864;BME280;65834;52.364;9.754;2024-01-30T04:31:24;102054.72;;;7.93;71.16
76864;BME280;65834;52.364;9.754;2024-01-30T04:33:53;102044.91;;;7.92;71.10
76864;BME280;65834;52.364;9.754;2024-01-30T04:36:23;102044.22;;;7.90;71.16
76864;BME280;65834;52.364;9.754;2024-01-30T04:38:55;102048.75;;;7.89;71.14
76864;BME280;65834;52.364;9.754;2024-01-30T04:41:24;102043.19;;;7.91;71.19
76864;BME280;65834;52.364;9.754;2024-01-30T04:43:58;102047.03;;;7.88;70.92
76864;BME280;65834;52.364;9.754;2024-01-30T04:46:27;102042.50;;;7.89;70.94
76864;BME280;65834;52.364;9.754;2024-01-30T04:48:57;102055.38;;;7.85;71.27
76864;BME280;65834;52.364;9.754;2024-01-30T04:51:27;102049.13;;;7.85;71.11
76864;BME280;65834;52.364;9.754;2024-01-30T04:53:59;102048.56;;;7.81;71.23
76864;BME280;65834;52.364;9.754;2024-01-30T04:56:28;102048.09;;;7.76;71.48
76864;BME280;65834;52.364;9.754;2024-01-30T04:58:58;102046.25;;;7.77;71.30
76864;BME280;65834;52.364;9.754;2024-01-30T05:01:28;102041.69;;;7.68;71.54
76864;BME280;65834;52.364;9.754;2024-01-30T05:03:58;102041.81;;;7.66;71.53
76864;BME280;65834;52.364;9.754;2024-01-30T05:06:28;102041.25;;;7.62;71.66
76864;BME280;65834;52.364;9.754;2024-01-30T05:09:00;102037.38;;;7.55;71.77
76864;BME280;65834;52.364;9.754;2024-01-30T05:11:31;102041.50;;;7.59;71.99
76864;BME280;65834;52.364;9.754;2024-01-30T05:14:00;102036.41;;;7.56;72.12
76864;BME280;65834;52.364;9.754;2024-01-30T05:16:31;102057.34;;;7.53;71.97
76864;BME280;65834;52.364;9.754;2024-01-30T05:19:00;102041.84;;;7.45;72.19
76864;BME280;65834;52.364;9.754;2024-01-30T05:21:30;102047.09;;;7.47;72.18
76864;BME280;65834;52.364;9.754;2024-01-30T05:24:02;102052.50;;;7.47;72.28
76864;BME280;65834;52.364;9.754;2024-01-30T05:26:32;102052.22;;;7.50;72.28
76864;BME280;65834;52.364;9.754;2024-01-30T05:29:02;102053.91;;;7.51;72.13
76864;BME280;65834;52.364;9.754;2024-01-30T05:31:31;102049.53;;;7.50;72.07
76864;BME280;65834;52.364;9.754;2024-01-30T05:34:01;102043.66;;;7.45;71.92
76864;BME280;65834;52.364;9.754;2024-01-30T05:36:31;102044.84;;;7.52;72.06
76864;BME280;65834;52.364;9.754;2024-01-30T05:39:03;102050.66;;;7.47;72.24
76864;BME280;65834;52.364;9.754;2024-01-30T05:41:34;102042.69;;;7.46;72.14
76864;BME280;65834;52.364;9.754;2024-01-30T05:44:04;102041.13;;;7.43;72.01
76864;BME280;65834;52.364;9.754;2024-01-30T05:46:35;102044.00;;;7.51;72.00
76864;BME280;65834;52.364;9.754;2024-01-30T05:49:05;102048.53;;;7.51;71.94
76864;BME280;65834;52.364;9.754;2024-01-30T05:51:34;102047.38;;;7.44;72.13
76864;BME280;65834;52.364;9.754;2024-01-30T05:54:06;102052.41;;;7.37;72.23
76864;BME280;65834;52.364;9.754;2024-01-30T05:56:36;102048.00;;;7.36;72.35
76864;BME280;65834;52.364;9.754;2024-01-30T05:59:05;102040.38;;;7.41;72.47
76864;BME280;65834;52.364;9.754;2024-01-30T06:01:35;102048.59;;;7.40;72.25
76864;BME280;65834;52.364;9.754;2024-01-30T06:04:05;102040.28;;;7.43;72.34
76864;BME280;65834;52.364;9.754;2024-01-30T06:06:34;102049.38;;;7.51;72.05
76864;BME280;65834;52.364;9.754;2024-01-30T06:09:06;102042.88;;;7.54;71.83
76864;BME280;65834;52.364;9.754;2024-01-30T06:11:36;102042.25;;;7.41;72.08
76864;BME280;65834;52.364;9.754;2024-01-30T06:14:06;102035.22;;;7.49;72.24
76864;BME280;65834;52.364;9.754;2024-01-30T06:16:36;102039.34;;;7.53;71.87
76864;BME280;65834;52.364;9.754;2024-01-30T06:19:05;102042.06;;;7.53;71.93
76864;BME280;65834;52.364;9.754;2024-01-30T06:21:35;102039.91;;;7.57;71.75
76864;BME280;65834;52.364;9.754;2024-01-30T06:24:07;102034.69;;;7.55;71.77
76864;BME280;65834;52.364;9.754;2024-01-30T06:26:37;102030.16;;;7.56;71.70
76864;BME280;65834;52.364;9.754;2024-01-30T06:29:07;102034.94;;;7.52;71.88
76864;BME280;65834;52.364;9.754;2024-01-30T06:31:40;102016.47;;;7.48;71.90
76864;BME280;65834;52.364;9.754;2024-01-30T06:34:09;102026.88;;;7.52;71.82
76864;BME280;65834;52.364;9.754;2024-01-30T06:36:39;102027.00;;;7.51;71.92
76864;BME280;65834;52.364;9.754;2024-01-30T06:39:11;102019.91;;;7.50;71.94
76864;BME280;65834;52.364;9.754;2024-01-30T06:41:41;102020.91;;;7.49;72.00
76864;BME280;65834;52.364;9.754;2024-01-30T06:44:13;102014.38;;;7.51;71.84
76864;BME280;65834;52.364;9.754;2024-01-30T06:46:42;102013.41;;;7.52;71.70
76864;BME280;65834;52.364;9.754;2024-01-30T06:49:12;102009.00;;;7.51;71.70
76864;BME280;65834;52.364;9.754;2024-01-30T06:51:41;102015.41;;;7.50;71.64
76864;BME280;65834;52.364;9.754;2024-01-30T06:54:14;102020.50;;;7.53;71.59
76864;BME280;65834;52.364;9.754;2024-01-30T06:56:43;102013.69;;;7.49;71.62
76864;BME280;65834;52.364;9.754;2024-01-30T06:59:13;102016.63;;;7.46;71.70
76864;BME280;65834;52.364;9.754;2024-01-30T07:01:43;102019.44;;;7.45;71.81
76864;BME280;65834;52.364;9.754;2024-01-30T07:04:12;102017.88;;;7.42;71.72
76864;BME280;65834;52.364;9.754;2024-01-30T07:06:42;102025.84;;;7.44;71.74
76864;BME280;65834;52.364;9.754;2024-01-30T07:09:15;102022.13;;;7.45;71.74
76864;BME280;65834;52.364;9.754;2024-01-30T07:11:44;102026.69;;;7.44;71.65
76864;BME280;65834;52.364;9.754;2024-01-30T07:14:14;102024.97;;;7.43;71.81
76864;BME280;65834;52.364;9.754;2024-01-30T07:16:44;102028.97;;;7.49;71.79
76864;BME280;65834;52.364;9.754;2024-01-30T07:19:14;102026.53;;;7.46;72.00
76864;BME280;65834;52.364;9.754;2024-01-30T07:21:44;102022.03;;;7.46;71.97
76864;BME280;65834;52.364;9.754;2024-01-30T07:24:19;102024.81;;;7.45;71.92
76864;BME280;65834;52.364;9.754;2024-01-30T07:26:49;102024.72;;;7.46;71.89
76864;BME280;65834;52.364;9.754;2024-01-30T07:29:18;102024.28;;;7.51;71.66
76864;BME280;65834;52.364;9.754;2024-01-30T07:31:49;102027.00;;;7.51;71.75
76864;BME280;65834;52.364;9.754;2024-01-30T07:34:18;102022.72;;;7.48;71.73
76864;BME280;65834;52.364;9.754;2024-01-30T07:36:48;102023.19;;;7.53;71.51
76864;BME280;65834;52.364;9.754;2024-01-30T07:39:24;102025.63;;;7.56;71.43
76864;BME280;65834;52.364;9.754;2024-01-30T07:41:54;102025.16;;;7.51;71.57
76864;BME280;65834;52.364;9.754;2024-01-30T07:44:23;102020.50;;;7.53;71.57
76864;BME280;65834;52.364;9.754;2024-01-30T07:46:53;102026.88;;;7.52;71.36
76864;BME280;65834;52.364;9.754;2024-01-30T07:49:23;102024.78;;;7.56;71.43
76864;BME280;65834;52.364;9.754;2024-01-30T07:51:53;102030.16;;;7.56;71.68
76864;BME280;65834;52.364;9.754;2024-01-30T07:54:25;102025.09;;;7.62;71.46
76864;BME280;65834;52.364;9.754;2024-01-30T07:56:55;102025.09;;;7.62;71.29
76864;BME280;65834;52.364;9.754;2024-01-30T07:59:25;102024.81;;;7.66;71.48
76864;BME280;65834;52.364;9.754;2024-01-30T08:01:54;102031.50;;;7.71;70.94
76864;BME280;65834;52.364;9.754;2024-01-30T08:04:24;102026.13;;;7.71;71.03
76864;BME280;65834;52.364;9.754;2024-01-30T08:06:53;102025.00;;;7.74;70.77
76864;BME280;65834;52.364;9.754;2024-01-30T08:09:26;102015.78;;;7.76;70.81
76864;BME280;65834;52.364;9.754;2024-01-30T08:11:56;102020.78;;;7.81;70.78
76864;BME280;65834;52.364;9.754;2024-01-30T08:14:26;102023.19;;;7.84;70.51
76864;BME280;65834;52.364;9.754;2024-01-30T08:16:56;102016.53;;;7.88;70.65
76864;BME280;65834;52.364;9.754;2024-01-30T08:19:25;102014.53;;;7.80;70.68
76864;BME280;65834;52.364;9.754;2024-01-30T08:21:55;102011.16;;;7.88;70.42
76864;BME280;65834;52.364;9.754;2024-01-30T08:24:27;102010.31;;;7.87;70.41
76864;BME280;65834;52.364;9.754;2024-01-30T08:26:57;102007.19;;;7.92;70.39
76864;BME280;65834;52.364;9.754;2024-01-30T08:29:32;101999.66;;;7.86;70.56
76864;BME280;65834;52.364;9.754;2024-01-30T08:32:01;102007.19;;;7.92;70.68
76864;BME280;65834;52.364;9.754;2024-01-30T08:34:32;102009.63;;;7.95;70.57
76864;BME280;65834;52.364;9.754;2024-01-30T08:37:01;102006.25;;;8.02;70.50
76864;BME280;65834;52.364;9.754;2024-01-30T08:39:34;102008.94;;;8.02;70.23
76864;BME280;65834;52.364;9.754;2024-01-30T08:42:04;102015.91;;;8.05;70.07
76864;BME280;65834;52.364;9.754;2024-01-30T08:44:34;102013.91;;;8.07;70.27
76864;BME280;65834;52.364;9.754;2024-01-30T08:47:05;102019.19;;;8.08;70.17
76864;BME280;65834;52.364;9.754;2024-01-30T08:49:35;102020.03;;;8.09;70.13
76864;BME280;65834;52.364;9.754;2024-01-30T08:52:05;102020.03;;;8.09;70.15
76864;BME280;65834;52.364;9.754;2024-01-30T08:54:37;102024.16;;;8.13;70.34
76864;BME280;65834;52.364;9.754;2024-01-30T08:57:07;102023.16;;;8.14;70.26
76864;BME280;65834;52.364;9.754;2024-01-30T08:59:36;102010.56;;;8.14;70.18
76864;BME280;65834;52.364;9.754;2024-01-30T09:02:06;102007.56;;;8.17;70.07
76864;BME280;65834;52.364;9.754;2024-01-30T09:04:38;101986.69;;;8.10;69.96
76864;BME280;65834;52.364;9.754;2024-01-30T09:07:09;102000.34;;;8.18;70.09
76864;BME280;65834;52.364;9.754;2024-01-30T09:09:42;102002.03;;;8.19;70.15
76864;BME280;65834;52.364;9.754;2024-01-30T09:12:12;101998.94;;;8.24;70.05
76864;BME280;65834;52.364;9.754;2024-01-30T09:14:42;101998.66;;;8.27;70.06
76864;BME280;65834;52.364;9.754;2024-01-30T09:17:11;102002.94;;;8.29;69.90
76864;BME280;65834;52.364;9.754;2024-01-30T09:19:41;101999.13;;;8.32;70.16
76864;BME280;65834;52.364;9.754;2024-01-30T09:22:11;101999.13;;;8.32;70.04
76864;BME280;65834;52.364;9.754;2024-01-30T09:24:43;101999.81;;;8.34;69.98
76864;BME280;65834;52.364;9.754;2024-01-30T09:27:12;101998.84;;;8.35;69.84
76864;BME280;65834;52.364;9.754;2024-01-30T09:29:42;102004.69;;;8.40;69.86
76864;BME280;65834;52.364;9.754;2024-01-30T09:32:11;101996.16;;;8.35;70.20
76864;BME280;65834;52.364;9.754;2024-01-30T09:34:41;102007.94;;;8.43;69.80
76864;BME280;65834;52.364;9.754;2024-01-30T09:37:10;102004.66;;;8.49;69.85
76864;BME280;65834;52.364;9.754;2024-01-30T09:39:44;102008.50;;;8.47;69.72
76864;BME280;65834;52.364;9.754;2024-01-30T09:42:30;102004.84;;;8.48;69.76
76864;BME280;65834;52.364;9.754;2024-01-30T09:45:02;102007.94;;;8.53;69.91
76864;BME280;65834;52.364;9.754;2024-01-30T09:47:39;102004.09;;;8.55;69.83
76864;BME280;65834;52.364;9.754;2024-01-30T09:50:10;102004.56;;;8.60;69.66
76864;BME280;65834;52.364;9.754;2024-01-30T09:52:40;102018.34;;;8.67;69.77
76864;BME280;65834;52.364;9.754;2024-01-30T09:55:12;102010.09;;;8.68;69.48
76864;BME280;65834;52.364;9.754;2024-01-30T09:57:42;102015.94;;;8.74;69.72
76864;BME280;65834;52.364;9.754;2024-01-30T10:00:14;102012.22;;;8.75;69.24
76864;BME280;65834;52.364;9.754;2024-01-30T10:02:44;102007.28;;;8.80;69.57
76864;BME280;65834;52.364;9.754;2024-01-30T10:05:15;102003.00;;;8.77;69.53
76864;BME280;65834;52.364;9.754;2024-01-30T10:07:53;102007.69;;;8.85;69.38
76864;BME280;65834;52.364;9.754;2024-01-30T10:10:26;102006.25;;;8.90;69.30
76864;BME280;65834;52.364;9.754;2024-01-30T10:12:56;102003.16;;;8.95;68.76
76864;BME280;65834;52.364;9.754;2024-01-30T10:15:29;101991.22;;;8.97;68.88
76864;BME280;65834;52.364;9.754;2024-01-30T10:18:03;101994.59;;;8.99;68.81
76864;BME280;65834;52.364;9.754;2024-01-30T10:20:33;101997.31;;;8.99;69.03
76864;BME280;65834;52.364;9.754;2024-01-30T10:23:03;101998.72;;;9.03;68.71
76864;BME280;65834;52.364;9.754;2024-01-30T10:25:37;101997.31;;;9.09;68.88
76864;BME280;65834;52.364;9.754;2024-01-30T10:28:07;101990.75;;;9.11;68.68
76864;BME280;65834;52.364;9.754;2024-01-30T10:30:36;101987.06;;;9.12;68.68
76864;BME280;65834;52.364;9.754;2024-01-30T10:33:06;101985.78;;;9.16;68.65
76864;BME280;65834;52.364;9.754;2024-01-30T10:35:36;101980.09;;;9.19;68.64
76864;BME280;65834;52.364;9.754;2024-01-30T10:38:07;101984.19;;;9.23;68.67
76864;BME280;65834;52.364;9.754;2024-01-30T10:40:43;101985.47;;;9.29;68.62
76864;BME280;65834;52.364;9.754;2024-01-30T10:43:15;101976.25;;;9.32;68.63
76864;BME280;65834;52.364;9.754;2024-01-30T10:45:49;101975.09;;;9.34;68.73
76864;BME280;65834;52.364;9.754;2024-01-30T10:48:22;101976.50;;;9.38;68.49
76864;BME280;65834;52.364;9.754;2024-01-30T10:50:57;101981.63;;;9.41;68.57
76864;BME280;65834;52.364;9.754;2024-01-30T10:53:30;101977.91;;;9.42;68.67
76864;BME280;65834;52.364;9.754;2024-01-30T10:56:04;101979.31;;;9.46;68.68
76864;BME280;65834;52.364;9.754;2024-01-30T10:58:34;101983.56;;;9.49;68.67
76864;BME280;65834;52.364;9.754;2024-01-30T11:01:05;101978.03;;;9.50;68.89
76864;BME280;65834;52.364;9.754;2024-01-30T11:03:35;101975.03;;;9.53;68.45
76864;BME280;65834;52.364;9.754;2024-01-30T11:06:10;101971.31;;;9.54;68.39
76864;BME280;65834;52.364;9.754;2024-01-30T11:08:40;101971.19;;;9.56;68.20
76864;BME280;65834;52.364;9.754;2024-01-30T11:11:13;101970.03;;;9.58;68.37
76864;BME280;65834;52.364;9.754;2024-01-30T11:13:44;101971.75;;;9.59;68.41
76864;BME280;65834;52.364;9.754;2024-01-30T11:16:13;101969.75;;;9.61;68.75
76864;BME280;65834;52.364;9.754;2024-01-30T11:18:50;101957.09;;;9.62;68.54
76864;BME280;65834;52.364;9.754;2024-01-30T11:21:20;101956.91;;;9.63;68.40
76864;BME280;65834;52.364;9.754;2024-01-30T11:23:49;101949.25;;;9.68;68.56
76864;BME280;65834;52.364;9.754;2024-01-30T11:26:24;101949.94;;;9.70;68.38
76864;BME280;65834;52.364;9.754;2024-01-30T11:28:56;101958.91;;;9.71;68.19
76864;BME280;65834;52.364;9.754;2024-01-30T11:31:26;101964.28;;;9.71;68.36
76864;BME280;65834;52.364;9.754;2024-01-30T11:33:56;101960.75;;;9.70;68.13
76864;BME280;65834;52.364;9.754;2024-01-30T11:36:28;101962.59;;;9.70;68.32
76864;BME280;65834;52.364;9.754;2024-01-30T11:38:58;101958.59;;;9.74;68.23
76864;BME280;65834;52.364;9.754;2024-01-30T11:41:30;101948.47;;;9.76;68.55
76864;BME280;65834;52.364;9.754;2024-01-30T11:44:00;101950.75;;;9.80;68.38
76864;BME280;65834;52.364;9.754;2024-01-30T11:46:33;101940.06;;;9.79;68.52
76864;BME280;65834;52.364;9.754;2024-01-30T11:49:03;101936.22;;;9.81;68.19
76864;BME280;65834;52.364;9.754;2024-01-30T11:51:33;101940.63;;;9.82;68.50
76864;BME280;65834;52.364;9.754;2024-01-30T11:54:03;101933.22;;;9.85;68.37
76864;BME280;65834;52.364;9.754;2024-01-30T11:56:36;101945.03;;;9.84;68.38
76864;BME280;65834;52.364;9.754;2024-01-30T11:59:06;101933.72;;;9.98;69.47
76864;BME280;65834;52.364;9.754;2024-01-30T12:01:36;101918.34;;;9.98;69.57
76864;BME280;65834;52.364;9.754;2024-01-30T12:04:07;101913.50;;;10.02;69.91
76864;BME280;65834;52.364;9.754;2024-01-30T12:06:38;101908.84;;;9.94;69.59
76864;BME280;65834;52.364;9.754;2024-01-30T12:09:09;101904.75;;;9.90;69.41
76864;BME280;65834;52.364;9.754;2024-01-30T12:11:46;101904.28;;;9.95;69.08
76864;BME280;65834;52.364;9.754;2024-01-30T12:14:16;101904.84;;;9.98;69.23
76864;BME280;65834;52.364;9.754;2024-01-30T12:16:49;101900.13;;;10.00;68.97
76864;BME280;65834;52.364;9.754;2024-01-30T12:19:22;101905.22;;;10.03;68.93
76864;BME280;65834;52.364;9.754;2024-01-30T12:21:56;101910.31;;;10.06;68.75
76864;BME280;65834;52.364;9.754;2024-01-30T12:24:30;101917.31;;;10.09;68.99
76864;BME280;65834;52.364;9.754;2024-01-30T12:27:03;101934.03;;;10.12;68.83
76864;BME280;65834;52.364;9.754;2024-01-30T12:29:32;101937.31;;;10.16;68.67
76864;BME280;65834;52.364;9.754;2024-01-30T12:32:06;101937.19;;;10.17;68.75
76864;BME280;65834;52.364;9.754;2024-01-30T12:34:40;101937.44;;;10.24;68.64
76864;BME280;65834;52.364;9.754;2024-01-30T12:37:25;101936.66;;;10.31;68.76
76864;BME280;65834;52.364;9.754;2024-01-30T12:39:56;101934.13;;;10.30;68.49
76864;BME280;65834;52.364;9.754;2024-01-30T12:42:28;101933.94;;;10.31;68.50
76864;BME280;65834;52.364;9.754;2024-01-30T12:44:58;101929.47;;;10.40;69.04
76864;BME280;65834;52.364;9.754;2024-01-30T12:47:30;101926.44;;;10.43;68.95
76864;BME280;65834;52.364;9.754;2024-01-30T12:49:59;101921.75;;;10.45;68.83
76864;BME280;65834;52.364;9.754;2024-01-30T12:52:30;101929.25;;;10.51;68.88
76864;BME280;65834;52.364;9.754;2024-01-30T12:54:59;101931.94;;;10.51;68.64
76864;BME280;65834;52.364;9.754;2024-01-30T12:57:34;101944.31;;;10.54;68.85
76864;BME280;65834;52.364;9.754;2024-01-30T13:00:07;101933.00;;;10.58;68.94
76864;BME280;65834;52.364;9.754;2024-01-30T13:02:37;101939.28;;;10.59;68.61
76864;BME280;65834;52.364;9.754;2024-01-30T13:05:09;101936.44;;;10.60;68.64
76864;BME280;65834;52.364;9.754;2024-01-30T13:07:39;101941.38;;;10.65;68.59
76864;BME280;65834;52.364;9.754;2024-01-30T13:10:09;101948.34;;;10.67;68.48
76864;BME280;65834;52.364;9.754;2024-01-30T13:12:41;101939.19;;;10.68;68.35
76864;BME280;65834;52.364;9.754;2024-01-30T13:15:11;101936.72;;;10.75;68.47
76864;BME280;65834;52.364;9.754;2024-01-30T13:17:40;101946.25;;;10.79;68.22
76864;BME280;65834;52.364;9.754;2024-01-30T13:20:12;101944.22;;;10.81;68.34